createdAt,value
2022-09-15T00:03:46.188Z,100.00
2022-09-15T00:13:51.331Z,100.00
2022-09-15T00:23:54.377Z,100.00
2022-09-15T00:34:02.509Z,100.00
2022-09-15T00:44:07.680Z,100.00
2022-09-15T00:54:15.785Z,100.00
2022-09-15T01:04:18.768Z,100.00
2022-09-15T01:14:23.276Z,100.00
2022-09-15T01:24:47.027Z,100.00
2022-09-15T01:34:58.702Z,100.00
2022-09-15T01:45:06.254Z,100.00
2022-09-15T01:55:18.285Z,100.00
2022-09-15T02:05:27.171Z,100.00
2022-09-15T02:15:34.516Z,100.00
2022-09-15T02:25:43.685Z,100.00
2022-09-15T02:35:48.648Z,100.00
2022-09-15T02:45:51.431Z,100.00
2022-09-15T02:55:56.326Z,100.00
2022-09-15T03:06:16.516Z,100.00
2022-09-15T03:16:21.375Z,100.00
2022-09-15T03:26:24.348Z,100.00
2022-09-15T03:36:28.666Z,100.00
2022-09-15T03:46:31.906Z,100.00
2022-09-15T03:56:36.433Z,100.00
2022-09-15T04:06:39.930Z,100.00
2022-09-15T04:16:44.303Z,100.00
2022-09-15T04:26:47.359Z,100.00
2022-09-15T04:36:51.863Z,100.00
2022-09-15T04:46:54.864Z,100.00
2022-09-15T04:56:59.229Z,100.00
2022-09-15T05:07:02.296Z,100.00
2022-09-15T05:17:06.694Z,100.00
2022-09-15T05:27:09.646Z,100.00
2022-09-15T05:37:14.166Z,100.00
2022-09-15T05:47:17.458Z,100.00
2022-09-15T05:57:21.792Z,100.00
2022-09-15T06:07:26.017Z,100.00
2022-09-15T06:17:33.015Z,100.00
2022-09-15T06:27:35.957Z,100.00
2022-09-15T06:37:40.490Z,100.00
2022-09-15T06:47:43.556Z,100.00
2022-09-15T06:57:47.982Z,100.00
2022-09-15T07:07:51.082Z,100.00
2022-09-15T07:17:55.863Z,100.00
2022-09-15T07:27:58.743Z,100.00
2022-09-15T07:38:05.781Z,100.00
2022-09-15T07:48:09.970Z,100.00
2022-09-15T07:58:14.951Z,100.00
2022-09-15T08:08:18.004Z,100.00
2022-09-15T08:18:22.572Z,100.00
2022-09-15T08:28:26.177Z,100.00
2022-09-15T08:38:30.538Z,100.00
2022-09-15T08:48:40.930Z,100.00
2022-09-15T08:58:46.794Z,100.00
2022-09-15T09:09:16.119Z,100.00
2022-09-15T09:19:36.689Z,100.00
2022-09-15T09:29:43.478Z,98.58
2022-09-15T09:39:48.146Z,98.16
2022-09-15T09:49:51.474Z,96.37
2022-09-15T09:59:57.054Z,97.09
2022-09-15T10:10:02.537Z,98.77
2022-09-15T10:20:24.342Z,98.04
2022-09-15T10:30:28.432Z,94.91
2022-09-15T10:40:40.725Z,95.96
2022-09-15T10:50:54.743Z,92.93
2022-09-15T11:01:10.119Z,92.62
2022-09-15T11:11:20.207Z,90.66
2022-09-15T11:21:30.440Z,84.08
2022-09-15T11:31:39.592Z,79.99
2022-09-15T11:41:52.496Z,81.49
2022-09-15T11:52:02.606Z,79.64
2022-09-15T12:02:17.828Z,74.68
2022-09-15T12:12:24.112Z,73.31
2022-09-15T12:22:36.815Z,72.63
2022-09-15T12:32:40.534Z,72.35
2022-09-15T12:42:47.577Z,70.13
2022-09-15T12:52:53.695Z,67.03
2022-09-15T13:02:58.339Z,66.72
2022-09-15T13:13:16.684Z,60.23
2022-09-15T13:23:25.057Z,53.88
2022-09-15T13:44:43.474Z,52.52
2022-09-15T13:55:24.201Z,51.83
2022-09-15T14:05:33.146Z,52.55
2022-09-15T14:15:36.450Z,53.33
2022-09-15T14:25:47.083Z,55.88
2022-09-15T14:35:50.713Z,57.99
2022-09-15T14:46:04.492Z,60.18
2022-09-15T14:56:17.442Z,61.78
2022-09-15T15:06:29.620Z,60.37
2022-09-15T15:16:33.326Z,60.55
2022-09-15T15:26:40.085Z,62.87
2022-09-15T15:36:44.260Z,60.95
2022-09-15T15:46:53.302Z,63.57
2022-09-15T15:57:05.413Z,65.78
2022-09-15T16:07:17.397Z,67.33
2022-09-15T16:17:21.074Z,69.54
2022-09-15T16:27:31.716Z,70.17
2022-09-15T16:37:42.136Z,72.29
2022-09-15T16:47:49.205Z,73.18
2022-09-15T16:57:55.494Z,74.96
2022-09-15T17:08:10.791Z,76.54
2022-09-15T17:18:15.590Z,77.22
2022-09-15T17:28:22.744Z,78.16
2022-09-15T17:38:25.826Z,79.83
2022-09-15T17:48:30.321Z,81.10
2022-09-15T17:58:33.492Z,82.80
2022-09-15T18:08:38.031Z,83.40
2022-09-15T18:18:41.167Z,84.50
2022-09-15T18:28:45.773Z,85.80
2022-09-15T18:38:48.868Z,86.41
2022-09-15T18:48:53.376Z,88.36
2022-09-15T18:58:56.848Z,89.69
2022-09-15T19:09:02.519Z,91.45
2022-09-15T19:19:05.793Z,93.93
2022-09-15T19:29:10.964Z,92.92
2022-09-15T19:39:14.984Z,92.00
2022-09-15T19:49:19.559Z,91.32
2022-09-15T19:59:26.294Z,91.86
2022-09-15T20:09:33.473Z,92.63
2022-09-15T20:19:37.185Z,93.71
2022-09-15T20:29:41.822Z,93.73
2022-09-15T20:39:48.262Z,94.63
2022-09-15T20:49:52.796Z,98.10
2022-09-15T20:59:55.855Z,98.49
2022-09-15T21:10:00.224Z,99.41
2022-09-15T21:20:03.844Z,100.00
2022-09-15T21:30:09.471Z,100.00
2022-09-15T21:40:13.191Z,100.00
2022-09-15T21:50:17.822Z,100.00
2022-09-15T22:00:20.828Z,100.00
2022-09-15T22:10:25.247Z,100.00
2022-09-15T22:20:29.479Z,100.00
2022-09-15T22:30:33.756Z,100.00
2022-09-15T22:40:36.737Z,100.00
2022-09-15T22:50:41.191Z,100.00
2022-09-15T23:00:44.139Z,100.00
2022-09-15T23:10:48.578Z,100.00
2022-09-15T23:20:56.946Z,100.00
2022-09-15T23:31:02.216Z,100.00
2022-09-15T23:41:05.691Z,100.00
2022-09-15T23:51:10.186Z,100.00
